Time;durP1;ratioP1;P1;durP2;ratioP2;P2;SDS_P1;SDS_P2;PMS_P1;PMS_P2;Temp;Humidity;BMP_temperature;BMP_pressure;BME280_temperature;BME280_humidity;BME280_pressure;Samples;Min_cycle;Max_cycle;Signal;HPM_P1;HPM_P2
2022/11/28 00:00:07;;;;;;;35.53;18.70;;;4.10;99.90;;;;;;2054692;28;20062;-67
2022/11/28 00:01:23;;;;;;;33.63;19.50;;;4.10;99.90;;;;;;2056280;28;20484;-66
2022/11/28 00:02:24;;;;;;;33.25;19.10;;;4.10;99.90;;;;;;2055727;28;20046;-67
2022/11/28 00:03:24;;;;;;;32.58;18.48;;;4.10;99.90;;;;;;2055837;28;20069;-67
2022/11/28 00:04:25;;;;;;;33.92;18.80;;;4.10;99.90;;;;;;2056321;28;20026;-67
2022/11/28 00:05:26;;;;;;;34.65;18.77;;;4.10;99.90;;;;;;2057078;28;20043;-67
2022/11/28 00:06:27;;;;;;;34.17;19.30;;;4.10;99.90;;;;;;2056832;28;20037;-66
2022/11/28 00:07:28;;;;;;;32.38;18.73;;;4.10;99.90;;;;;;2057259;28;20030;-67
2022/11/28 00:08:29;;;;;;;32.80;18.48;;;4.10;99.90;;;;;;2056852;28;20065;-66
2022/11/28 00:09:30;;;;;;;31.15;18.35;;;4.10;99.90;;;;;;2055230;28;20034;-67
2022/11/28 00:10:30;;;;;;;31.73;18.48;;;4.10;99.90;;;;;;2055184;28;20042;-68
2022/11/28 00:11:31;;;;;;;29.58;17.42;;;4.10;99.90;;;;;;2054951;28;20385;-67
2022/11/28 00:12:34;;;;;;;28.95;17.48;;;4.10;99.90;;;;;;2055020;28;20034;-67
2022/11/28 00:13:35;;;;;;;30.40;17.58;;;4.10;99.90;;;;;;2055076;28;20426;-67
2022/11/28 00:14:36;;;;;;;32.72;17.77;;;4.10;99.90;;;;;;2054985;28;20019;-67
2022/11/28 00:15:36;;;;;;;30.83;17.80;;;4.10;99.90;;;;;;2054911;28;20607;-67
2022/11/28 00:16:37;;;;;;;32.30;18.00;;;4.10;99.90;;;;;;2055029;28;20336;-67
2022/11/28 00:17:38;;;;;;;32.42;17.90;;;4.10;99.90;;;;;;2055039;28;20521;-67
2022/11/28 00:18:39;;;;;;;34.75;18.10;;;4.10;99.90;;;;;;2054957;28;20054;-68
2022/11/28 00:19:39;;;;;;;28.52;16.83;;;4.10;99.90;;;;;;2062365;28;20029;-66
2022/11/28 00:20:40;;;;;;;32.63;18.00;;;4.10;99.90;;;;;;2062258;28;20033;-67
2022/11/28 00:21:41;;;;;;;29.33;16.63;;;4.10;99.90;;;;;;2054845;28;20041;-67
2022/11/28 00:22:42;;;;;;;31.65;17.92;;;4.10;99.90;;;;;;2054863;28;20110;-68
2022/11/28 00:23:45;;;;;;;32.50;18.23;;;4.10;99.90;;;;;;2054256;28;20548;-68
2022/11/28 00:24:45;;;;;;;34.08;17.92;;;4.10;99.90;;;;;;2054469;28;20398;-67
2022/11/28 00:25:54;;;;;;;29.33;17.50;;;4.10;99.90;;;;;;2062380;28;20038;-67
2022/11/28 00:26:55;;;;;;;28.77;17.02;;;4.10;99.90;;;;;;2055187;28;20054;-67
2022/11/28 00:27:56;;;;;;;29.63;16.17;;;4.10;99.90;;;;;;2055075;28;20058;-67
2022/11/28 00:28:59;;;;;;;29.20;16.73;;;4.10;99.90;;;;;;2054987;28;20497;-67
2022/11/28 00:30:00;;;;;;;29.38;16.95;;;4.10;99.90;;;;;;2054982;28;20026;-67
2022/11/28 00:31:02;;;;;;;30.27;17.30;;;4.10;99.90;;;;;;2055707;28;20107;-67
2022/11/28 00:32:03;;;;;;;32.67;17.67;;;4.10;99.90;;;;;;2056224;28;20047;-67
2022/11/28 00:33:04;;;;;;;30.10;17.38;;;4.10;99.90;;;;;;2056499;28;20043;-67
2022/11/28 00:34:04;;;;;;;30.20;17.20;;;4.10;99.90;;;;;;2056356;28;20110;-67
2022/11/28 00:35:05;;;;;;;32.22;17.27;;;4.10;99.90;;;;;;2055807;28;20037;-67
2022/11/28 00:36:07;;;;;;;30.27;16.40;;;4.10;99.90;;;;;;2055712;28;20090;-67
2022/11/28 00:37:07;;;;;;;31.80;17.25;;;4.10;99.90;;;;;;2056476;28;20108;-67
2022/11/28 00:38:08;;;;;;;30.48;17.08;;;4.10;99.90;;;;;;2056301;28;20126;-67
2022/11/28 00:39:09;;;;;;;29.75;16.75;;;4.10;99.90;;;;;;2056526;28;20496;-67
2022/11/28 00:40:10;;;;;;;29.52;16.90;;;4.10;99.90;;;;;;2056410;28;20541;-67
2022/11/28 00:41:17;;;;;;;30.00;16.52;;;4.10;99.90;;;;;;2056437;28;20038;-67
2022/11/28 00:42:20;;;;;;;27.40;16.45;;;4.10;99.90;;;;;;2056116;28;20039;-67
2022/11/28 00:43:21;;;;;;;26.63;16.13;;;4.10;99.90;;;;;;2058286;28;20031;-67
2022/11/28 00:44:22;;;;;;;29.45;16.48;;;4.10;99.90;;;;;;2058726;28;20145;-67
2022/11/28 00:45:23;;;;;;;27.65;16.35;;;4.10;99.90;;;;;;2039931;29;20034;-67
2022/11/28 00:46:24;;;;;;;28.13;16.40;;;4.10;99.90;;;;;;2040036;29;20028;-67
2022/11/28 00:47:25;;;;;;;28.75;17.02;;;4.10;99.90;;;;;;2055841;28;20030;-67
2022/11/28 00:48:26;;;;;;;23.60;15.00;;;4.10;99.90;;;;;;2056587;28;20661;-67
2022/11/28 00:49:27;;;;;;;29.45;15.98;;;4.10;99.90;;;;;;2063769;28;20030;-67
2022/11/28 00:50:27;;;;;;;30.17;16.50;;;4.10;99.90;;;;;;2063839;28;20076;-67
2022/11/28 00:51:31;;;;;;;27.13;14.70;;;4.10;99.90;;;;;;2056191;28;20019;-68
2022/11/28 00:52:32;;;;;;;25.75;15.32;;;4.10;99.90;;;;;;2056265;28;20061;-67
2022/11/28 00:53:33;;;;;;;28.80;16.27;;;4.10;99.90;;;;;;2063732;28;20073;-66
2022/11/28 00:54:33;;;;;;;26.63;15.48;;;4.10;99.90;;;;;;2063647;28;20050;-66
2022/11/28 00:55:37;;;;;;;24.40;14.93;;;4.10;99.90;;;;;;2056319;28;20034;-67
2022/11/28 00:56:39;;;;;;;28.85;15.85;;;4.10;99.90;;;;;;2056222;28;20031;-66
2022/11/28 00:57:39;;;;;;;27.17;16.35;;;4.10;99.90;;;;;;2056406;28;20040;-66
2022/11/28 00:58:41;;;;;;;28.30;15.88;;;4.10;99.90;;;;;;2056265;28;20029;-66
2022/11/28 00:59:42;;;;;;;29.42;16.17;;;4.10;99.90;;;;;;2056242;28;20046;-67
2022/11/28 01:00:42;;;;;;;29.90;16.55;;;4.10;99.90;;;;;;2056424;28;20665;-67
2022/11/28 01:01:43;;;;;;;30.83;16.55;;;4.10;99.90;;;;;;2056172;28;20046;-67
2022/11/28 01:02:44;;;;;;;29.23;15.98;;;4.10;99.90;;;;;;2056459;28;20046;-67
2022/11/28 01:03:46;;;;;;;27.33;15.60;;;4.10;99.90;;;;;;2056407;28;20497;-67
2022/11/28 01:04:47;;;;;;;25.23;14.82;;;4.10;99.90;;;;;;2056254;28;20512;-67
2022/11/28 01:05:47;;;;;;;28.08;15.43;;;4.10;99.90;;;;;;2056389;28;20027;-68
2022/11/28 01:06:49;;;;;;;23.13;14.45;;;4.10;99.90;;;;;;2056396;28;20031;-67
2022/11/28 01:07:50;;;;;;;26.35;15.18;;;4.10;99.90;;;;;;2055617;28;20102;-67
2022/11/28 01:08:51;;;;;;;28.55;16.02;;;4.10;99.90;;;;;;2047651;28;20756;-67
2022/11/28 01:09:52;;;;;;;30.38;15.98;;;4.10;99.90;;;;;;2047458;28;20034;-67
2022/11/28 01:10:52;;;;;;;26.98;16.15;;;4.20;99.90;;;;;;2047492;28;20493;-67
2022/11/28 01:11:53;;;;;;;25.90;15.82;;;4.10;99.90;;;;;;2055076;28;20658;-67
2022/11/28 01:12:54;;;;;;;30.33;15.88;;;4.20;99.90;;;;;;2055235;28;20081;-68
2022/11/28 01:13:57;;;;;;;27.30;15.60;;;4.20;99.90;;;;;;2055439;28;20205;-68
2022/11/28 01:14:59;;;;;;;28.80;16.10;;;4.20;99.90;;;;;;2056097;28;20111;-67
2022/11/28 01:16:00;;;;;;;25.80;15.13;;;4.20;99.90;;;;;;2056063;28;20030;-66
2022/11/28 01:17:00;;;;;;;26.95;15.40;;;4.20;99.90;;;;;;2056158;28;20042;-67
2022/11/28 01:18:01;;;;;;;26.00;15.75;;;4.20;99.90;;;;;;2056152;28;20034;-67
2022/11/28 01:19:02;;;;;;;26.05;14.88;;;4.20;99.90;;;;;;2063416;28;20069;-67
2022/11/28 01:20:05;;;;;;;26.40;15.40;;;4.20;99.90;;;;;;2063610;28;20397;-68
2022/11/28 01:21:07;;;;;;;30.20;15.77;;;4.20;99.90;;;;;;2055546;28;20037;-67
2022/11/28 01:22:07;;;;;;;28.85;15.48;;;4.20;99.90;;;;;;2055240;28;20095;-67
2022/11/28 01:23:08;;;;;;;27.63;15.32;;;4.20;99.90;;;;;;2056155;28;20390;-67
2022/11/28 01:24:09;;;;;;;27.80;15.65;;;4.30;99.90;;;;;;2063231;28;20046;-67
2022/11/28 01:25:10;;;;;;;26.33;15.70;;;4.20;99.90;;;;;;2055609;28;20027;-67
2022/11/28 01:26:16;;;;;;;27.38;15.20;;;4.20;99.90;;;;;;2055433;28;20085;-67
2022/11/28 01:27:17;;;;;;;25.50;14.90;;;4.30;99.90;;;;;;2055456;28;20023;-67
2022/11/28 01:28:17;;;;;;;27.85;16.10;;;4.20;99.90;;;;;;2059333;28;20042;-67
2022/11/28 01:29:18;;;;;;;28.45;15.88;;;4.20;99.90;;;;;;2067832;28;20685;-67
2022/11/28 01:30:18;;;;;;;25.73;15.43;;;4.20;99.90;;;;;;2055481;28;20129;-67
2022/11/28 01:31:22;;;;;;;28.73;15.50;;;4.20;99.90;;;;;;2055625;28;20416;-67
2022/11/28 01:32:23;;;;;;;29.13;16.25;;;4.20;99.90;;;;;;2055979;28;20027;-67
2022/11/28 01:33:23;;;;;;;30.45;16.45;;;4.20;99.90;;;;;;2056070;28;20027;-66
2022/11/28 01:34:24;;;;;;;26.58;15.45;;;4.30;99.90;;;;;;2055962;28;20065;-67
2022/11/28 01:35:25;;;;;;;28.40;15.77;;;4.20;99.90;;;;;;2056055;28;20042;-67
2022/11/28 01:36:26;;;;;;;28.90;16.40;;;4.30;99.90;;;;;;2055774;28;20114;-67
2022/11/28 01:37:30;;;;;;;25.85;15.23;;;4.20;99.90;;;;;;2056181;28;20022;-67
2022/11/28 01:38:31;;;;;;;27.20;15.60;;;4.20;99.90;;;;;;2056047;28;20150;-67
2022/11/28 01:39:32;;;;;;;29.60;16.30;;;4.20;99.90;;;;;;2057418;28;20045;-67
2022/11/28 01:40:32;;;;;;;27.40;14.85;;;4.20;99.90;;;;;;2057997;28;20516;-67
2022/11/28 01:41:33;;;;;;;26.15;15.73;;;4.20;99.90;;;;;;2055692;28;20046;-67
2022/11/28 01:42:34;;;;;;;29.17;16.85;;;4.20;99.90;;;;;;2055818;28;20027;-67
2022/11/28 01:43:35;;;;;;;30.48;16.45;;;4.20;99.90;;;;;;2055885;28;20034;-67
2022/11/28 01:44:39;;;;;;;27.92;16.17;;;4.20;99.90;;;;;;2055731;28;20126;-67
2022/11/28 01:45:40;;;;;;;27.02;15.75;;;4.30;99.90;;;;;;2056065;28;20026;-67
2022/11/28 01:46:41;;;;;;;29.05;16.48;;;4.30;99.90;;;;;;2055982;28;20453;-67
2022/11/28 01:47:42;;;;;;;26.88;15.63;;;4.20;99.90;;;;;;2055191;28;20624;-67
2022/11/28 01:48:43;;;;;;;27.67;16.15;;;4.20;99.90;;;;;;2055232;28;20027;-68
2022/11/28 01:49:45;;;;;;;30.63;16.85;;;4.20;99.90;;;;;;2055074;28;20015;-67
2022/11/28 01:50:48;;;;;;;28.50;16.52;;;4.20;99.90;;;;;;2055311;28;20458;-67
2022/11/28 01:52:00;;;;;;;28.48;16.15;;;4.20;99.90;;;;;;2055536;28;20035;-67
2022/11/28 01:53:07;;;;;;;30.13;16.80;;;4.20;99.90;;;;;;2055581;28;20122;-67
2022/11/28 01:54:07;;;;;;;31.92;17.42;;;4.20;99.90;;;;;;2050305;28;20121;-68
2022/11/28 01:55:11;;;;;;;30.25;16.35;;;4.20;99.90;;;;;;2055788;28;20078;-67
2022/11/28 01:56:17;;;;;;;29.13;16.90;;;4.20;99.90;;;;;;2055768;28;20030;-67
2022/11/28 01:57:22;;;;;;;28.90;16.65;;;4.20;99.90;;;;;;2055915;28;20027;-67
2022/11/28 01:58:24;;;;;;;30.70;17.27;;;4.20;99.90;;;;;;2055870;28;20105;-68
2022/11/28 01:59:28;;;;;;;31.20;16.67;;;4.20;99.90;;;;;;2055847;28;20154;-67
2022/11/28 02:00:29;;;;;;;31.42;17.38;;;4.20;99.90;;;;;;2055985;28;20058;-67
2022/11/28 02:01:30;;;;;;;30.13;17.38;;;4.10;99.90;;;;;;2055463;28;20030;-67
2022/11/28 02:02:51;;;;;;;29.35;16.55;;;4.10;99.90;;;;;;2055689;28;20031;-68
2022/11/28 02:03:52;;;;;;;;;;;4.10;99.90;;;;;;2056285;28;20464;-67
2022/11/28 02:04:53;;;;;;;29.63;16.88;;;4.10;99.90;;;;;;2055734;28;19937;-67
2022/11/28 02:05:55;;;;;;;29.67;17.33;;;4.10;99.90;;;;;;2055905;28;20062;-67
2022/11/28 02:06:55;;;;;;;30.95;16.95;;;4.10;99.90;;;;;;2055756;28;20039;-67
2022/11/28 02:07:56;;;;;;;30.67;17.08;;;4.10;99.90;;;;;;2055577;28;20033;-68
2022/11/28 02:08:57;;;;;;;30.75;16.70;;;4.10;99.90;;;;;;2055696;28;20113;-66
2022/11/28 02:09:59;;;;;;;31.10;17.33;;;4.10;99.90;;;;;;2055752;28;20038;-67
2022/11/28 02:11:34;;;;;;;36.08;17.13;;;4.10;99.90;;;;;;2055613;28;20034;-66
2022/11/28 02:12:40;;;;;;;34.78;17.52;;;4.10;99.90;;;;;;2055647;28;20033;-67
2022/11/28 02:14:02;;;;;;;27.52;16.15;;;4.10;99.90;;;;;;2055767;28;20566;-67
2022/11/28 02:15:28;;;;;;;30.85;17.48;;;4.00;99.90;;;;;;2056122;28;20201;-66
2022/11/28 02:16:35;;;;;;;30.70;17.27;;;4.10;99.90;;;;;;2055856;28;20023;-67
2022/11/28 02:17:57;;;;;;;31.58;17.58;;;4.00;99.90;;;;;;2055895;28;20493;-67
2022/11/28 02:19:08;;;;;;;33.30;17.83;;;4.00;99.90;;;;;;2056020;28;20097;-66
2022/11/28 02:20:24;;;;;;;32.88;17.40;;;4.00;99.90;;;;;;2055968;28;20440;-67
2022/11/28 02:21:39;;;;;;;32.22;18.23;;;4.00;99.90;;;;;;2062790;28;20030;-67
2022/11/28 02:22:42;;;;;;;31.42;17.25;;;4.00;99.90;;;;;;2065476;28;20061;-67
2022/11/28 02:24:17;;;;;;;30.50;16.88;;;4.00;99.90;;;;;;2055577;28;20494;-67
2022/11/28 02:25:54;;;;;;;29.05;16.35;;;4.00;99.90;;;;;;2048523;28;20045;-67
2022/11/28 02:27:22;;;;;;;29.05;16.05;;;4.00;99.90;;;;;;2055449;28;20042;-66
2022/11/28 02:28:56;;;;;;;30.10;17.20;;;4.00;99.90;;;;;;2056125;28;20501;-67
2022/11/28 02:30:11;;;;;;;30.67;16.48;;;4.00;99.90;;;;;;2056782;28;20513;-67
2022/11/28 02:31:39;;;;;;;32.00;16.95;;;4.00;99.90;;;;;;2056681;28;20039;-67
2022/11/28 02:33:17;;;;;;;30.67;16.90;;;4.00;99.90;;;;;;2055616;28;20545;-67
2022/11/28 02:34:29;;;;;;;34.80;17.70;;;4.00;99.90;;;;;;2055291;28;20057;-67
2022/11/28 02:35:38;;;;;;;30.23;17.27;;;4.00;99.90;;;;;;2055488;28;20026;-67
2022/11/28 02:36:49;;;;;;;31.83;17.80;;;3.90;99.90;;;;;;2056613;28;20023;-67
2022/11/28 02:38:13;;;;;;;30.27;16.88;;;3.90;99.90;;;;;;2055576;28;20054;-67
2022/11/28 02:39:30;;;;;;;33.90;17.95;;;3.90;99.90;;;;;;2055582;28;20042;-67
2022/11/28 02:40:59;;;;;;;32.20;17.27;;;3.90;99.90;;;;;;2055511;28;20035;-67
2022/11/28 02:42:17;;;;;;;31.40;17.33;;;3.90;99.90;;;;;;2055142;28;20038;-67
2022/11/28 02:43:21;;;;;;;33.60;17.58;;;3.90;99.90;;;;;;2055793;28;20084;-67
2022/11/28 02:44:46;;;;;;;32.42;17.02;;;3.90;99.90;;;;;;2055213;28;20034;-67
2022/11/28 02:46:02;;;;;;;31.55;17.30;;;3.90;99.90;;;;;;2055549;28;20035;-68
2022/11/28 02:47:22;;;;;;;32.58;17.67;;;3.90;99.90;;;;;;2055460;28;20034;-67
2022/11/28 02:49:03;;;;;;;30.92;16.98;;;4.00;99.90;;;;;;2055961;28;20581;-67
2022/11/28 02:50:08;;;;;;;;;;;3.90;99.90;;;;;;2054475;28;20053;-67
2022/11/28 02:51:12;;;;;;;29.40;16.08;;;3.90;99.90;;;;;;2047446;28;19911;-67
2022/11/28 02:52:21;;;;;;;33.95;17.85;;;3.90;99.90;;;;;;2054580;28;20157;-67
2022/11/28 02:53:24;;;;;;;34.58;18.05;;;3.90;99.90;;;;;;2054679;28;20035;-67
2022/11/28 02:54:26;;;;;;;31.98;18.13;;;3.90;99.90;;;;;;2054664;28;20805;-67
2022/11/28 02:55:27;;;;;;;31.25;17.58;;;3.90;99.90;;;;;;2062922;28;20492;-67
2022/11/28 02:56:28;;;;;;;32.60;18.23;;;3.90;99.90;;;;;;2062750;28;20110;-67
2022/11/28 02:57:39;;;;;;;31.30;17.98;;;3.90;99.90;;;;;;2062889;28;20540;-67
2022/11/28 02:58:40;;;;;;;34.08;17.63;;;3.90;99.90;;;;;;2061507;28;20030;-67
2022/11/28 02:59:40;;;;;;;35.30;16.98;;;3.90;99.90;;;;;;2055483;28;20035;-67
2022/11/28 03:00:42;;;;;;;29.60;17.75;;;3.90;99.90;;;;;;2062640;28;20074;-69
2022/11/28 03:01:43;;;;;;;31.80;17.33;;;3.90;99.90;;;;;;2054554;28;20464;-67
2022/11/28 03:02:47;;;;;;;31.33;17.58;;;3.90;99.90;;;;;;2054780;28;20034;-67
2022/11/28 03:04:00;;;;;;;34.95;18.27;;;3.90;99.90;;;;;;2047370;28;20126;-68
2022/11/28 03:05:18;;;;;;;34.83;17.88;;;3.90;99.90;;;;;;2055272;28;20062;-67
2022/11/28 03:06:34;;;;;;;33.83;17.70;;;3.90;99.90;;;;;;2055341;28;20027;-67
2022/11/28 03:08:07;;;;;;;33.08;18.00;;;3.80;99.90;;;;;;2053601;28;20034;-67
2022/11/28 03:09:22;;;;;;;30.50;17.40;;;3.80;99.90;;;;;;2050408;28;20018;-68
2022/11/28 03:10:50;;;;;;;32.42;17.65;;;3.90;99.90;;;;;;2055524;28;20110;-67
2022/11/28 03:12:09;;;;;;;32.13;17.20;;;3.90;99.90;;;;;;2055211;28;20035;-67
2022/11/28 03:13:19;;;;;;;30.40;17.17;;;3.90;99.90;;;;;;2055416;28;20121;-67
2022/11/28 03:14:26;;;;;;;33.00;17.85;;;3.80;99.90;;;;;;2055313;28;20502;-67
2022/11/28 03:15:52;;;;;;;30.33;18.00;;;3.80;99.90;;;;;;2062768;28;20106;-66
2022/11/28 03:17:19;;;;;;;34.05;18.63;;;3.80;99.90;;;;;;2059557;28;20184;-67
2022/11/28 03:18:31;;;;;;;34.55;17.67;;;3.80;99.90;;;;;;2055164;28;20041;-66
2022/11/28 03:19:41;;;;;;;33.70;18.17;;;3.70;99.90;;;;;;2055335;28;20102;-67
2022/11/28 03:20:50;;;;;;;32.42;17.88;;;3.70;99.90;;;;;;2055483;28;20837;-66
2022/11/28 03:22:10;;;;;;;34.35;18.40;;;3.70;99.90;;;;;;2055244;28;20469;-67
2022/11/28 03:23:14;;;;;;;31.85;17.13;;;3.70;99.90;;;;;;2055331;28;20030;-68
2022/11/28 03:24:24;;;;;;;33.78;18.27;;;3.70;99.90;;;;;;2055350;28;20026;-66
2022/11/28 03:25:40;;;;;;;33.65;18.05;;;3.70;99.90;;;;;;2055549;28;20030;-66
2022/11/28 03:27:13;;;;;;;30.88;17.75;;;3.70;99.90;;;;;;2056115;28;20027;-68
2022/11/28 03:28:26;;;;;;;34.08;17.45;;;3.70;99.90;;;;;;2054569;28;20045;-67
2022/11/28 03:29:49;;;;;;;31.00;16.90;;;3.70;99.90;;;;;;2055339;28;20050;-67
2022/11/28 03:31:06;;;;;;;32.28;17.40;;;3.70;99.90;;;;;;2055120;28;20027;-67
2022/11/28 03:32:15;;;;;;;30.48;17.13;;;3.70;99.90;;;;;;2056700;28;20536;-67
2022/11/28 03:33:20;;;;;;;31.05;17.73;;;3.60;99.90;;;;;;2059074;28;20030;-67
2022/11/28 03:34:25;;;;;;;33.95;18.08;;;3.60;99.90;;;;;;2054926;28;20038;-68
2022/11/28 03:35:31;;;;;;;32.28;17.92;;;3.60;99.90;;;;;;2055205;28;20019;-68
2022/11/28 03:36:41;;;;;;;33.78;17.90;;;3.60;99.90;;;;;;2055194;28;20451;-67
2022/11/28 03:37:48;;;;;;;34.17;18.20;;;3.60;99.90;;;;;;2055371;28;20026;-67
2022/11/28 03:38:55;;;;;;;33.53;17.63;;;3.60;99.90;;;;;;2055301;28;20277;-67
2022/11/28 03:40:06;;;;;;;31.08;17.75;;;3.60;99.90;;;;;;2055268;28;20426;-67
2022/11/28 03:41:13;;;;;;;29.85;17.80;;;3.60;99.90;;;;;;2055255;28;20051;-67
2022/11/28 03:42:21;;;;;;;30.75;17.25;;;3.60;99.90;;;;;;2054135;28;20079;-67
2022/11/28 03:43:29;;;;;;;30.63;17.25;;;3.50;99.90;;;;;;2054740;28;20027;-67
2022/11/28 03:44:38;;;;;;;29.85;17.20;;;3.50;99.90;;;;;;2055289;28;20236;-67
2022/11/28 03:45:44;;;;;;;32.83;17.10;;;3.50;99.90;;;;;;2055233;28;20126;-68
2022/11/28 03:46:47;;;;;;;31.38;18.27;;;3.50;99.90;;;;;;2055265;28;20023;-68
2022/11/28 03:47:55;;;;;;;33.42;18.00;;;3.50;99.90;;;;;;2055198;28;20464;-67
2022/11/28 03:48:59;;;;;;;32.08;17.75;;;3.50;99.90;;;;;;2055146;28;20022;-68
2022/11/28 03:50:05;;;;;;;30.60;16.92;;;3.50;99.90;;;;;;2055146;28;20046;-67
2022/11/28 03:51:14;;;;;;;30.45;17.25;;;3.50;99.90;;;;;;2055241;28;20050;-67
2022/11/28 03:52:26;;;;;;;30.60;17.25;;;3.50;99.90;;;;;;2054894;28;20101;-67
2022/11/28 03:53:37;;;;;;;31.10;17.98;;;3.40;99.90;;;;;;2054623;28;20545;-67
2022/11/28 03:54:44;;;;;;;;;;;3.40;99.90;;;;;;2055068;28;20043;-67
2022/11/28 03:55:53;;;;;;;33.03;17.73;;;3.40;99.90;;;;;;2054959;28;19925;-68
2022/11/28 03:57:07;;;;;;;38.13;18.55;;;3.40;99.90;;;;;;2055158;28;20023;-68
2022/11/28 03:58:13;;;;;;;35.60;18.80;;;3.40;99.90;;;;;;2055115;28;20101;-68
2022/11/28 03:59:32;;;;;;;34.40;18.13;;;3.40;99.90;;;;;;2054995;28;20035;-67
2022/11/28 04:00:41;;;;;;;31.77;17.83;;;3.30;99.90;;;;;;2055184;28;20082;-67
2022/11/28 04:02:00;;;;;;;36.60;18.58;;;3.40;99.90;;;;;;2055034;28;20011;-67
2022/11/28 04:03:15;;;;;;;35.70;18.08;;;3.30;99.90;;;;;;2050208;28;20708;-68
2022/11/28 04:04:28;;;;;;;35.35;18.42;;;3.30;99.90;;;;;;2055150;28;20026;-67
2022/11/28 04:05:55;;;;;;;33.35;18.45;;;3.40;99.90;;;;;;2062515;28;20033;-67
2022/11/28 04:07:20;;;;;;;31.98;18.02;;;3.30;99.90;;;;;;2060450;28;20248;-67
2022/11/28 04:08:23;;;;;;;30.98;17.85;;;3.30;99.90;;;;;;2056958;28;20042;-67
2022/11/28 04:09:41;;;;;;;33.55;18.40;;;3.30;99.90;;;;;;2056642;28;20039;-67
2022/11/28 04:11:07;;;;;;;35.20;18.23;;;3.30;99.90;;;;;;2056092;28;20070;-66
2022/11/28 04:12:25;;;;;;;32.10;17.80;;;3.20;99.90;;;;;;2051306;28;20141;-67
2022/11/28 04:13:53;;;;;;;33.78;18.35;;;3.30;99.90;;;;;;2056821;28;20027;-66
2022/11/28 04:15:02;;;;;;;32.63;18.00;;;3.20;99.90;;;;;;2056483;28;20438;-66
2022/11/28 04:16:03;;;;;;;35.28;18.50;;;3.20;99.90;;;;;;2056885;28;20031;-66
2022/11/28 04:17:12;;;;;;;32.25;18.33;;;3.20;99.90;;;;;;2056864;28;20122;-66
2022/11/28 04:18:49;;;;;;;36.00;18.05;;;3.20;99.90;;;;;;2056954;28;20023;-67
2022/11/28 04:19:59;;;;;;;35.83;18.75;;;3.20;99.90;;;;;;2057290;28;20023;-67
2022/11/28 04:21:28;;;;;;;34.83;18.77;;;3.20;99.90;;;;;;2056087;28;20030;-66
2022/11/28 04:22:47;;;;;;;33.58;18.60;;;3.20;99.90;;;;;;2058721;28;20042;-67
2022/11/28 04:23:49;;;;;;;34.63;18.42;;;3.10;99.90;;;;;;2056710;28;20023;-68
2022/11/28 04:24:57;;;;;;;31.63;18.30;;;3.20;99.90;;;;;;2056730;28;20109;-68
2022/11/28 04:26:03;;;;;;;35.20;19.25;;;3.20;99.90;;;;;;2056593;28;20125;-68
2022/11/28 04:27:09;;;;;;;35.85;18.77;;;3.20;99.90;;;;;;2056621;28;20057;-68
2022/11/28 04:28:17;;;;;;;33.70;18.58;;;3.20;99.90;;;;;;2056504;28;20366;-68
2022/11/28 04:29:22;;;;;;;34.45;18.98;;;3.20;99.90;;;;;;2056381;28;20089;-68
2022/11/28 04:30:22;;;;;;;35.65;19.08;;;3.20;99.90;;;;;;2056319;28;20022;-68
2022/11/28 04:31:25;;;;;;;35.78;19.58;;;3.20;99.90;;;;;;2056081;28;20026;-68
2022/11/28 04:32:29;;;;;;;36.35;19.63;;;3.20;99.90;;;;;;2056400;28;20043;-68
2022/11/28 04:33:36;;;;;;;32.25;19.40;;;3.20;99.90;;;;;;2055725;28;20045;-68
2022/11/28 04:34:39;;;;;;;33.88;18.60;;;3.20;99.90;;;;;;2055883;28;20050;-68
2022/11/28 04:35:48;;;;;;;36.58;19.52;;;3.20;99.90;;;;;;2056466;28;20099;-68
2022/11/28 04:36:50;;;;;;;35.05;18.70;;;3.10;99.90;;;;;;2056677;28;20347;-68
2022/11/28 04:37:53;;;;;;;33.72;19.40;;;3.10;99.90;;;;;;2056548;28;20382;-68
2022/11/28 04:38:56;;;;;;;34.63;19.20;;;3.20;99.90;;;;;;2056432;28;20042;-68
2022/11/28 04:39:59;;;;;;;34.13;19.42;;;3.10;99.90;;;;;;2056444;28;20023;-68
2022/11/28 04:41:12;;;;;;;36.88;20.02;;;3.10;99.90;;;;;;2056465;28;20504;-68
2022/11/28 04:42:25;;;;;;;35.40;19.50;;;3.20;99.90;;;;;;2056118;28;20121;-67
2022/11/28 04:43:31;;;;;;;34.80;19.60;;;3.20;99.90;;;;;;2056254;28;20126;-67
2022/11/28 04:44:42;;;;;;;34.47;18.88;;;3.20;99.90;;;;;;2055396;28;20034;-68
2022/11/28 04:46:05;;;;;;;35.92;19.40;;;3.20;99.90;;;;;;2054714;28;20030;-68
2022/11/28 04:47:06;;;;;;;36.78;20.02;;;3.20;99.90;;;;;;2047503;29;20051;-67
2022/11/28 04:48:06;;;;;;;35.50;20.55;;;3.20;99.90;;;;;;2048401;28;20031;-67
2022/11/28 04:49:07;;;;;;;38.42;19.83;;;3.20;99.90;;;;;;2047812;29;20077;-67
2022/11/28 04:50:09;;;;;;;34.47;19.63;;;3.20;99.90;;;;;;2047901;28;20557;-66
2022/11/28 04:51:09;;;;;;;35.83;20.10;;;3.20;99.90;;;;;;2048498;28;20031;-67
2022/11/28 04:52:30;;;;;;;36.72;20.63;;;3.20;99.90;;;;;;2048145;28;20027;-67
2022/11/28 04:53:42;;;;;;;34.15;19.27;;;3.30;99.90;;;;;;2048285;29;20047;-68
2022/11/28 04:54:54;;;;;;;35.97;19.55;;;3.30;99.90;;;;;;2048194;28;20413;-67
2022/11/28 04:56:01;;;;;;;34.28;19.92;;;3.30;99.90;;;;;;2054743;28;20105;-67
2022/11/28 04:57:36;;;;;;;38.03;19.77;;;3.20;99.90;;;;;;2056387;28;20023;-68
2022/11/28 04:58:42;;;;;;;35.17;19.90;;;3.20;99.90;;;;;;2056200;28;20038;-68
2022/11/28 04:59:43;;;;;;;36.55;20.60;;;3.30;99.90;;;;;;2056194;28;20022;-68
2022/11/28 05:00:45;;;;;;;38.75;20.33;;;3.20;99.90;;;;;;2056166;28;20022;-67
2022/11/28 05:01:47;;;;;;;34.08;19.65;;;3.30;99.90;;;;;;2063280;28;20028;-68
2022/11/28 05:02:52;;;;;;;37.10;20.15;;;3.30;99.90;;;;;;2055323;28;20174;-68
2022/11/28 05:03:53;;;;;;;33.85;19.73;;;3.30;99.90;;;;;;2048160;29;20769;-68
2022/11/28 05:04:54;;;;;;;35.88;20.42;;;3.30;99.90;;;;;;2047533;29;20031;-67
2022/11/28 05:05:55;;;;;;;36.63;21.27;;;3.30;99.90;;;;;;2047314;29;20082;-67
2022/11/28 05:07:05;;;;;;;37.00;20.65;;;3.30;99.90;;;;;;2048189;28;20050;-67
2022/11/28 05:08:05;;;;;;;38.63;20.92;;;3.30;99.90;;;;;;2048145;28;20035;-67
2022/11/28 05:09:06;;;;;;;40.33;19.85;;;3.30;99.90;;;;;;2048165;28;20414;-67
2022/11/28 05:10:09;;;;;;;34.53;19.40;;;3.30;99.90;;;;;;2048163;29;20441;-67
2022/11/28 05:11:09;;;;;;;36.83;20.80;;;3.30;99.90;;;;;;2056003;28;20722;-68
2022/11/28 05:12:10;;;;;;;35.20;20.05;;;3.30;99.90;;;;;;2055833;28;20030;-67
2022/11/28 05:13:11;;;;;;;34.38;19.70;;;3.30;99.90;;;;;;2056206;28;20098;-67
2022/11/28 05:14:12;;;;;;;34.95;20.42;;;3.30;99.90;;;;;;2055903;28;20461;-67
2022/11/28 05:15:17;;;;;;;36.28;19.83;;;3.30;99.90;;;;;;2056101;28;20455;-67
2022/11/28 05:16:18;;;;;;;36.30;20.73;;;3.30;99.90;;;;;;2055865;28;20485;-67
2022/11/28 05:17:19;;;;;;;32.85;19.75;;;3.30;99.90;;;;;;2055674;28;20053;-66
2022/11/28 05:18:19;;;;;;;34.78;19.70;;;3.30;99.90;;;;;;2056127;28;20027;-67
2022/11/28 05:19:20;;;;;;;34.03;19.85;;;3.30;99.90;;;;;;2056740;28;20034;-67
2022/11/28 05:20:21;;;;;;;34.25;19.67;;;3.30;99.90;;;;;;2056923;28;20377;-68
2022/11/28 05:21:22;;;;;;;34.97;20.45;;;3.30;99.90;;;;;;2055222;28;20031;-69
2022/11/28 05:22:22;;;;;;;37.67;21.67;;;3.30;99.90;;;;;;2055176;28;20140;-69
2022/11/28 05:23:23;;;;;;;39.70;20.25;;;3.30;99.90;;;;;;2056153;28;20437;-69
2022/11/28 05:24:24;;;;;;;38.70;20.42;;;3.40;99.90;;;;;;2055617;28;20805;-70
2022/11/28 05:25:25;;;;;;;31.88;19.38;;;3.40;99.90;;;;;;2058307;28;20760;-69
2022/11/28 05:26:25;;;;;;;35.72;20.40;;;3.40;99.90;;;;;;2056202;28;20094;-69
2022/11/28 05:27:26;;;;;;;36.05;21.23;;;3.40;99.90;;;;;;2056047;28;20086;-69
2022/11/28 05:28:26;;;;;;;37.00;20.70;;;3.40;99.90;;;;;;2056327;28;20034;-69
2022/11/28 05:29:27;;;;;;;34.58;20.00;;;3.40;99.90;;;;;;2056232;28;20050;-71
2022/11/28 05:30:28;;;;;;;34.53;20.35;;;3.40;99.90;;;;;;2056416;28;20031;-69
2022/11/28 05:31:29;;;;;;;35.47;20.65;;;3.40;99.90;;;;;;2055187;28;20031;-70
2022/11/28 05:32:30;;;;;;;37.72;21.05;;;3.30;99.90;;;;;;2055336;28;20042;-70
2022/11/28 05:33:31;;;;;;;34.03;20.25;;;3.30;99.90;;;;;;2047460;28;20027;-69
2022/11/28 05:34:32;;;;;;;34.45;19.88;;;3.30;99.90;;;;;;2047679;28;20035;-70
2022/11/28 05:35:33;;;;;;;36.42;20.58;;;3.30;99.90;;;;;;2055398;28;20034;-70
2022/11/28 05:36:34;;;;;;;33.75;20.25;;;3.30;99.90;;;;;;2055144;28;20035;-70
2022/11/28 05:37:35;;;;;;;37.17;21.27;;;3.30;99.90;;;;;;2055703;28;20014;-71
2022/11/28 05:38:36;;;;;;;38.50;21.45;;;3.30;99.90;;;;;;2055416;28;20051;-70
2022/11/28 05:39:37;;;;;;;38.78;23.88;;;3.30;99.90;;;;;;2055451;28;20041;-70
2022/11/28 05:40:42;;;;;;;38.97;22.63;;;3.30;99.90;;;;;;2056140;28;20034;-68
2022/11/28 05:41:43;;;;;;;37.50;21.13;;;3.30;99.90;;;;;;2056067;28;20098;-66
2022/11/28 05:42:44;;;;;;;35.90;21.50;;;3.30;99.90;;;;;;2056035;28;20545;-68